Historyczne dane pomiarowe

Dodano dane terminowe – wersja testowa.

Dane z okresu 1951-2019

Wersja bazy: 1.34 [2019-03-16, lista zmian], aktualizacja planowana na 2019-04-15

Dane meteo z obszaru Polski uzyskane na podstawie danych udostępnionych przez Instytut Meteorologii i Gospodarki Wodnej – Państwowy Instytut Badawczy.

 

Wybierz Datę:    

       

TemperaturaWilgotnośćZachmurzenieWiatrCiśnienieWidzialnośćZjawiska
 Data    tng td wb rh cc ccl cl cm ch dir g1 g2 mslp ppp      
1973-04-23 00:00:00 -5.7--- -7.1 -5.990wxwx12wx--- 831.5 0.1---wx
1973-04-23 01:00:00 -5.5------wxwx12wx--- 831.7----wxw1
1973-04-23 02:00:00 -5.8------wxwx6wx--- 832.1----wxw1
1973-04-23 03:00:00 -5.6--- -7.0 -5.890wxwxwx3wx--- 832.3----wxw1
1973-04-23 04:00:00 -5.5------wxwxwxwx5wx--- 832.3----wx
1973-04-23 05:00:00 -4.6------wxwxwxwx6wx--- 832.6----wx
1973-04-23 06:00:00 -4.2--- -5.7 -4.688wxwxwxwx4wx--- 833.3 0.0---wxw1
1973-04-23 07:00:00 -3.8------wxwxwxwxwx4wx--- 833.7----wx
1973-04-23 08:00:00 -3.4------wxwxwxwxwx3wx--- 834.0----wx
1973-04-23 09:00:00 -2.6--- -3.8 -3.090wxwxwxwx4wx--- 834.2----wx
1973-04-23 10:00:00 -1.6------wxwxwx2wx--- 834.5----wx
1973-04-23 11:00:00 -1.4------wxwxwx3wx--- 834.5----wx
1973-04-23 12:00:00 -0.4--- -2.2 -1.188wxwxwx2wx--- 834.6 0.0---wx
1973-04-23 13:00:00 -0.4------wxwxwx1wx--- 834.6----wx
1973-04-23 14:00:00 -0.6------wxwxwx0wx--- 834.4----wx
1973-04-23 15:00:00 -0.8--- -3.8 -2.080wxwxwx2wx--- 834.3----wx
1973-04-23 16:00:00 -0.8------wxwxwx2wx--- 834.3----wx
1973-04-23 17:00:00 -0.8------wxwxwxwx0wx--- 834.1----wx
1973-04-23 18:00:00 -0.8--- -2.7 -1.687wxwxwx5wx--- 834.0 0.0---wx
1973-04-23 19:00:00 -1.8------wxwxwx6wx--- 834.0----wx
1973-04-23 20:00:00 -2.2------wxwxwx5wx--- 834.2----wx
1973-04-23 21:00:00 -2.2--- -2.8 -2.396wxwxwx7wx--- 834.0----wx
1973-04-23 22:00:00 -2.4------wxwx7wx--- 834.0----wx
1973-04-23 23:00:00 -2.4------wxwx6wx--- 833.6----wx

 

Źródłem pochodzenia danych jest Instytut Meteorologii i Gospodarki Wodnej – Państwowy Instytut Badawczy. Dane Instytutu Meteorologii i Gospodarki Wodnej – Państwowego Instytutu Badawczego zostały przetworzone.

Dane źródłowe można odnaleźć na stronie https://dane.imgw.pl